createdAt,value
2023-02-22T00:00:44.744Z,97811.24
2023-02-22T00:04:34.079Z,97810.90
2023-02-22T00:08:23.600Z,97806.52
2023-02-22T00:12:14.003Z,97807.77
2023-02-22T00:16:02.898Z,97807.77
2023-02-22T00:43:02.484Z,97826.27
2023-02-22T00:46:51.918Z,97826.30
2023-02-22T00:50:40.804Z,97830.19
2023-02-22T00:54:22.297Z,97825.56
2023-02-22T00:58:11.390Z,97823.25
2023-02-22T01:02:00.122Z,97824.07
2023-02-22T01:05:49.222Z,97823.58
2023-02-22T01:09:38.224Z,97820.64
2023-02-22T01:13:27.259Z,97824.73
2023-02-22T01:17:16.385Z,97823.17
2023-02-22T01:21:08.457Z,97826.26
2023-02-22T01:24:57.762Z,97826.11
2023-02-22T01:28:47.819Z,97818.41
2023-02-22T01:32:35.732Z,97821.92
2023-02-22T01:36:24.598Z,97817.67
2023-02-22T01:40:13.568Z,97817.17
2023-02-22T01:44:03.180Z,97816.44
2023-02-22T01:59:31.119Z,97806.52
2023-02-22T02:03:20.371Z,97805.36
2023-02-22T02:07:09.274Z,97806.45
2023-02-22T02:10:59.374Z,97814.45
2023-02-22T02:14:56.047Z,97809.86
2023-02-22T02:18:46.790Z,97822.81
2023-02-22T02:31:20.567Z,97807.17
2023-02-22T02:35:21.797Z,97802.77
2023-02-22T02:39:25.885Z,97805.55
2023-02-22T02:51:51.598Z,97806.77
2023-02-22T02:55:39.075Z,97801.18
2023-02-22T02:59:26.964Z,97797.83
2023-02-22T03:03:36.488Z,97802.98
2023-02-22T03:15:49.244Z,97811.34
2023-02-22T03:19:49.486Z,97813.73
2023-02-22T03:32:01.078Z,97814.05
2023-02-22T03:35:51.185Z,97813.05
2023-02-22T03:39:41.159Z,97814.46
2023-02-22T03:43:32.887Z,97818.48
2023-02-22T03:55:07.334Z,97810.22
2023-02-22T03:58:56.696Z,97808.60
2023-02-22T04:02:45.897Z,97812.90
2023-02-22T04:06:34.944Z,97810.57
2023-02-22T04:11:12.123Z,97812.90
2023-02-22T04:14:59.598Z,97820.48
2023-02-22T04:18:47.269Z,97831.66
2023-02-22T04:22:35.090Z,97833.08
2023-02-22T04:26:23.022Z,97831.27
2023-02-22T04:30:10.677Z,97828.23
2023-02-22T04:33:58.321Z,97829.93
2023-02-22T04:37:48.100Z,97831.56
2023-02-22T04:53:27.574Z,97826.38
2023-02-22T04:57:16.663Z,97831.22
2023-02-22T05:01:05.847Z,97835.77
2023-02-22T05:04:55.184Z,97833.70
2023-02-22T05:20:34.443Z,97825.86
2023-02-22T05:24:23.769Z,97828.91
2023-02-22T05:28:13.118Z,97828.48
2023-02-22T05:32:02.249Z,97834.23
2023-02-22T05:35:07.103Z,97838.56
2023-02-22T05:38:43.549Z,97836.52
2023-02-22T05:42:27.232Z,97839.25
2023-02-22T05:46:08.627Z,97839.25
2023-02-22T05:49:48.782Z,97839.36
2023-02-22T05:53:36.556Z,97843.35
2023-02-22T05:56:48.583Z,97844.59
2023-02-22T06:00:36.719Z,97846.12
2023-02-22T06:04:16.105Z,97851.27
2023-02-22T06:07:58.338Z,97853.55
2023-02-22T06:22:27.904Z,97879.56
2023-02-22T06:25:14.989Z,97885.59
2023-02-22T06:28:45.378Z,97887.68
2023-02-22T06:32:22.014Z,97893.48
2023-02-22T06:36:09.509Z,97891.16
2023-02-22T06:39:21.084Z,97896.73
2023-02-22T06:42:28.537Z,97897.08
2023-02-22T06:45:56.083Z,97894.02
2023-02-22T06:49:33.636Z,97901.39
2023-02-22T06:53:14.156Z,97904.80
2023-02-22T06:56:53.407Z,97906.48
2023-02-22T07:00:41.437Z,97910.64
2023-02-22T07:08:44.455Z,97913.22
2023-02-22T07:12:11.671Z,97915.84
2023-02-22T07:15:58.747Z,97918.50
2023-02-22T07:19:27.335Z,97920.86
2023-02-22T07:23:15.004Z,97918.89
2023-02-22T07:26:47.441Z,97916.73
2023-02-22T07:30:26.809Z,97917.05
2023-02-22T07:34:05.888Z,97915.16
2023-02-22T07:37:17.194Z,97918.40
2023-02-22T07:40:45.165Z,97917.52
2023-02-22T07:46:49.755Z,97923.84
2023-02-22T07:49:28.757Z,97924.27
2023-02-22T07:56:21.883Z,97923.67
2023-02-22T07:59:48.572Z,97922.63
2023-02-22T08:03:17.005Z,97919.54
2023-02-22T08:10:19.575Z,97921.23
2023-02-22T08:21:10.631Z,97915.16
2023-02-22T08:24:59.923Z,97917.16
2023-02-22T08:28:11.667Z,97913.73
2023-02-22T08:32:00.892Z,97916.00
2023-02-22T08:35:04.255Z,97916.92
2023-02-22T08:38:14.848Z,97921.58
2023-02-22T08:40:55.657Z,97920.88
2023-02-22T08:43:28.599Z,97920.56
2023-02-22T08:46:55.258Z,97924.60
2023-02-22T08:50:44.579Z,97923.58
2023-02-22T08:53:59.310Z,97921.66
2023-02-22T08:57:27.809Z,97921.70
2023-02-22T09:00:51.411Z,97919.84
2023-02-22T09:04:10.805Z,97918.73
2023-02-22T09:07:39.130Z,97919.12
2023-02-22T09:11:00.463Z,97922.34
2023-02-22T09:14:50.216Z,97925.84
2023-02-22T09:18:39.123Z,97925.23
2023-02-22T09:22:35.548Z,97927.42
2023-02-22T09:26:05.638Z,97931.09
2023-02-22T09:29:29.624Z,97928.85
2023-02-22T09:32:27.435Z,97935.85
2023-02-22T09:36:03.728Z,97932.67
2023-02-22T09:39:52.923Z,97933.87
2023-02-22T09:43:40.336Z,97934.41
2023-02-22T09:47:40.460Z,97935.15
2023-02-22T09:51:29.659Z,97937.70
2023-02-22T10:10:04.612Z,97928.11
2023-02-22T10:13:32.915Z,97931.66
2023-02-22T10:17:31.220Z,97924.76
2023-02-22T10:20:53.368Z,97919.09
2023-02-22T10:24:34.040Z,97918.32
2023-02-22T10:28:06.077Z,97916.59
2023-02-22T10:31:48.126Z,97918.71
2023-02-22T10:35:31.524Z,97914.90
2023-02-22T10:39:10.041Z,97914.01
2023-02-22T10:42:58.118Z,97912.14
2023-02-22T10:46:29.040Z,97911.92
2023-02-22T10:50:17.723Z,97906.39
2023-02-22T10:53:54.737Z,97909.35
2023-02-22T10:57:47.306Z,97906.42
2023-02-22T11:01:25.617Z,97902.64
2023-02-22T11:05:14.815Z,97906.20
2023-02-22T11:21:21.664Z,97904.03
2023-02-22T11:24:48.813Z,97903.47
2023-02-22T11:28:33.479Z,97898.20
2023-02-22T11:31:53.954Z,97898.48
2023-02-22T11:35:30.395Z,97893.21
2023-02-22T11:39:12.558Z,97894.76
2023-02-22T11:56:50.769Z,97891.73
2023-02-22T12:00:34.817Z,97889.31
2023-02-22T12:04:41.630Z,97888.92
2023-02-22T12:08:33.108Z,97888.83
2023-02-22T12:11:46.633Z,97886.84
2023-02-22T12:27:38.005Z,97880.30
2023-02-22T12:31:08.966Z,97881.41
2023-02-22T12:34:58.120Z,97878.21
2023-02-22T12:51:14.748Z,97867.09
2023-02-22T12:55:19.461Z,97865.25
2023-02-22T12:59:10.498Z,97857.76
2023-02-22T13:06:49.702Z,97859.23
2023-02-22T13:10:36.820Z,97860.21
2023-02-22T13:13:55.403Z,97858.26
2023-02-22T13:17:14.753Z,97859.18
2023-02-22T13:20:43.286Z,97861.66
2023-02-22T13:24:21.065Z,97860.55
2023-02-22T13:27:13.281Z,97856.55
2023-02-22T13:29:59.277Z,97857.32
2023-02-22T13:33:03.059Z,97856.18
2023-02-22T13:36:29.715Z,97860.04
2023-02-22T13:52:44.116Z,97865.61
2023-02-22T13:55:50.633Z,97863.31
2023-02-22T13:59:54.160Z,97860.95
2023-02-22T14:15:29.098Z,97855.38
2023-02-22T14:19:03.315Z,97855.30
2023-02-22T14:22:48.129Z,97855.29
2023-02-22T14:26:29.576Z,97854.02
2023-02-22T14:29:53.906Z,97847.20
2023-02-22T14:36:13.039Z,97850.69
2023-02-22T14:39:21.898Z,97850.85
2023-02-22T14:43:12.114Z,97847.73
2023-02-22T14:46:48.384Z,97847.36
2023-02-22T14:50:22.889Z,97851.34
2023-02-22T15:05:05.184Z,97852.86
2023-02-22T15:08:57.001Z,97853.77
2023-02-22T15:12:26.821Z,97850.70
2023-02-22T15:16:14.857Z,97853.24
2023-02-22T15:19:49.874Z,97850.07
2023-02-22T15:22:49.260Z,97847.11
2023-02-22T15:25:39.192Z,97845.40
2023-02-22T15:28:56.407Z,97845.88
2023-02-22T15:32:33.704Z,97845.81
2023-02-22T15:35:45.905Z,97842.73
2023-02-22T15:39:18.871Z,97841.74
2023-02-22T15:42:45.223Z,97846.25
2023-02-22T15:50:47.888Z,97846.46
2023-02-22T15:54:34.124Z,97846.86
2023-02-22T15:59:13.697Z,97847.65
2023-02-22T16:03:01.411Z,97846.81
2023-02-22T16:06:49.333Z,97848.17
2023-02-22T16:10:09.469Z,97853.73
2023-02-22T16:14:01.393Z,97852.09
2023-02-22T16:20:47.366Z,97854.77
2023-02-22T16:24:33.010Z,97853.21
2023-02-22T16:36:16.669Z,97857.80
2023-02-22T16:40:05.955Z,97855.02
2023-02-22T16:43:56.621Z,97855.65
2023-02-22T16:47:47.322Z,97860.80
2023-02-22T16:51:35.233Z,97855.00
2023-02-22T17:06:58.345Z,97855.91
2023-02-22T17:10:48.074Z,97858.72
2023-02-22T17:14:37.040Z,97852.63
2023-02-22T17:18:26.175Z,97855.95
2023-02-22T17:22:15.405Z,97854.39
2023-02-22T17:26:04.644Z,97854.39
2023-02-22T17:41:40.143Z,97851.63
2023-02-22T17:45:30.066Z,97853.98
2023-02-22T17:49:19.058Z,97858.05
2023-02-22T17:53:08.483Z,97863.72
2023-02-22T17:56:57.522Z,97859.81
2023-02-22T18:00:46.988Z,97860.10
2023-02-22T18:04:36.251Z,97861.20
2023-02-22T18:08:25.845Z,97860.06
2023-02-22T18:12:17.380Z,97859.14
2023-02-22T18:16:07.468Z,97857.80
2023-02-22T18:19:57.463Z,97857.00
2023-02-22T18:23:49.663Z,97862.04
2023-02-22T18:27:40.715Z,97863.45
2023-02-22T18:31:32.063Z,97867.40
2023-02-22T18:35:48.838Z,97864.34
2023-02-22T18:39:38.174Z,97868.05
2023-02-22T18:43:27.387Z,97867.33
2023-02-22T18:47:17.899Z,97865.88
2023-02-22T18:51:06.625Z,97864.44
2023-02-22T18:54:58.626Z,97861.80
2023-02-22T18:58:47.669Z,97861.61
2023-02-22T19:02:36.995Z,97860.80
2023-02-22T19:06:26.853Z,97863.39
2023-02-22T19:10:16.240Z,97865.96
2023-02-22T19:14:05.499Z,97859.21
2023-02-22T19:17:54.944Z,97861.95
2023-02-22T19:21:47.200Z,97863.95
2023-02-22T19:41:05.104Z,97868.09
2023-02-22T19:44:55.222Z,97868.83
2023-02-22T19:48:44.154Z,97867.92
2023-02-22T19:52:25.584Z,97868.67
2023-02-22T19:56:14.872Z,97867.23
2023-02-22T20:00:07.374Z,97867.95
2023-02-22T20:03:40.395Z,97864.89
2023-02-22T20:07:29.710Z,97866.57
2023-02-22T20:11:19.545Z,97870.64
2023-02-22T20:15:09.089Z,97868.36
2023-02-22T20:18:58.499Z,97871.12
2023-02-22T20:22:47.483Z,97869.68
2023-02-22T20:26:27.389Z,97867.05
2023-02-22T20:30:16.827Z,97866.28
2023-02-22T20:34:06.564Z,97859.09
2023-02-22T20:37:47.183Z,97866.76
2023-02-22T20:53:27.797Z,97865.86
2023-02-22T20:57:16.760Z,97859.10
2023-02-22T21:01:06.058Z,97859.58
2023-02-22T21:04:55.355Z,97862.55
2023-02-22T21:08:44.454Z,97860.73
2023-02-22T21:12:33.560Z,97861.96
2023-02-22T21:16:23.043Z,97861.54
2023-02-22T21:20:12.431Z,97855.98
2023-02-22T21:24:01.391Z,97864.62
2023-02-22T21:27:50.697Z,97859.52
2023-02-22T21:31:39.915Z,97861.82
2023-02-22T21:35:29.168Z,97859.92
2023-02-22T21:39:18.313Z,97856.56
2023-02-22T21:43:07.537Z,97853.39
2023-02-22T21:46:55.474Z,97850.23
2023-02-22T21:50:46.670Z,97845.62
2023-02-22T21:54:35.454Z,97842.98
2023-02-22T21:58:24.209Z,97839.53
2023-02-22T22:02:13.193Z,97838.15
2023-02-22T22:06:01.448Z,97836.35
2023-02-22T22:09:55.056Z,97839.91
2023-02-22T22:13:46.245Z,97835.29
2023-02-22T22:40:38.601Z,97829.58
2023-02-22T22:44:27.642Z,97832.71
2023-02-22T22:48:19.448Z,97836.25
2023-02-22T22:52:08.561Z,97832.96
2023-02-22T22:55:57.664Z,97827.50
2023-02-22T22:59:27.879Z,97831.41
2023-02-22T23:11:10.339Z,97830.02
2023-02-22T23:15:05.300Z,97832.54
2023-02-22T23:18:54.317Z,97831.70
2023-02-22T23:22:43.308Z,97827.87
2023-02-22T23:26:32.263Z,97831.92
2023-02-22T23:30:21.591Z,97830.44
2023-02-22T23:34:11.322Z,97826.81
2023-02-22T23:38:00.464Z,97822.59
2023-02-22T23:41:50.421Z,97832.05
2023-02-22T23:45:43.707Z,97829.48
